Time;durP1;ratioP1;P1;durP2;ratioP2;P2;SDS_P1;SDS_P2;PMS_P1;PMS_P2;Temp;Humidity;BMP_temperature;BMP_pressure;BME280_temperature;BME280_humidity;BME280_pressure;Samples;Min_cycle;Max_cycle;Signal;HPM_P1;HPM_P2
2021/12/23 00:00:10;;;;;;;47.63;25.77;;;1.90;99.90;;;;;;2090758;28;20052;-75
2021/12/23 00:01:12;;;;;;;49.00;26.00;;;1.90;99.90;;;;;;2083893;28;20171;-74
2021/12/23 00:02:15;;;;;;;51.30;27.23;;;1.90;99.90;;;;;;2082921;28;20050;-75
2021/12/23 00:03:17;;;;;;;48.88;27.40;;;1.90;99.90;;;;;;2091034;28;20102;-74
2021/12/23 00:04:19;;;;;;;54.40;28.13;;;1.90;99.90;;;;;;2090990;28;20601;-74
2021/12/23 00:05:20;;;;;;;56.78;27.55;;;1.90;99.90;;;;;;2081765;28;20049;-74
2021/12/23 00:06:22;;;;;;;49.15;25.90;;;1.90;99.90;;;;;;2074045;28;20529;-74
2021/12/23 00:07:24;;;;;;;45.50;25.33;;;1.90;99.90;;;;;;2074522;28;20141;-74
2021/12/23 00:08:26;;;;;;;51.63;26.45;;;2.00;99.90;;;;;;2074532;28;20054;-74
2021/12/23 00:09:53;;;;;;;53.00;27.75;;;2.00;99.90;;;;;;2084081;28;20094;-75
2021/12/23 00:10:50;;;;;;;46.08;25.48;;;2.00;99.90;;;;;;2088960;28;20105;-74
2021/12/23 00:11:52;;;;;;;48.53;25.95;;;2.00;99.90;;;;;;2085110;28;20045;-74
2021/12/23 00:12:54;;;;;;;47.03;25.15;;;2.00;99.90;;;;;;2074967;28;20050;-74
2021/12/23 00:14:05;;;;;;;48.03;26.70;;;2.10;99.90;;;;;;2082903;28;20045;-75
2021/12/23 00:15:16;;;;;;;48.95;25.50;;;2.10;99.90;;;;;;2089639;28;20048;-74
2021/12/23 00:16:29;;;;;;;50.75;26.08;;;2.10;99.90;;;;;;2082528;28;20056;-74
2021/12/23 00:19:48;;;;;;;55.60;25.95;;;2.10;99.90;;;;;;2088699;28;20084;-75
2021/12/23 00:23:31;;;;;;;50.13;25.52;;;2.10;99.90;;;;;;2087870;28;20132;-74
2021/12/23 00:24:33;;;;;;;47.80;26.25;;;2.10;99.90;;;;;;2090603;28;20071;-74
2021/12/23 00:25:35;;;;;;;47.53;25.23;;;2.10;99.90;;;;;;2075506;28;20050;-75
2021/12/23 00:26:37;;;;;;;45.25;24.75;;;2.10;99.90;;;;;;2074442;28;20137;-74
2021/12/23 00:27:39;;;;;;;50.95;26.15;;;2.10;99.90;;;;;;2074338;28;20136;-74
2021/12/23 00:28:41;;;;;;;49.40;27.02;;;2.10;99.90;;;;;;2074449;28;20559;-74
2021/12/23 00:29:43;;;;;;;52.20;26.30;;;2.10;99.90;;;;;;2074159;28;20095;-74
2021/12/23 00:30:45;;;;;;;52.22;27.23;;;2.20;99.90;;;;;;2074640;28;20046;-74
2021/12/23 00:31:47;;;;;;;47.10;26.08;;;2.10;99.90;;;;;;2090801;28;20098;-74
2021/12/23 00:32:49;;;;;;;49.90;25.88;;;2.10;99.90;;;;;;2090704;28;20045;-74
2021/12/23 00:33:52;;;;;;;52.28;27.15;;;2.20;99.90;;;;;;2082248;28;20054;-75
2021/12/23 00:34:54;;;;;;;51.42;26.83;;;2.10;99.90;;;;;;2082648;28;20056;-74
2021/12/23 00:35:57;;;;;;;47.28;26.38;;;2.10;99.90;;;;;;2083263;28;20069;-74
2021/12/23 00:37:01;;;;;;;45.97;25.63;;;2.10;99.90;;;;;;2081906;28;20736;-74
2021/12/23 00:38:12;;;;;;;49.58;25.92;;;2.10;99.90;;;;;;2081935;28;20045;-74
2021/12/23 00:39:15;;;;;;;48.13;25.02;;;2.10;99.90;;;;;;2074751;28;20115;-74
2021/12/23 00:40:17;;;;;;;46.67;25.50;;;2.10;99.90;;;;;;2081495;28;20140;-74
2021/12/23 00:41:20;;;;;;;53.53;27.38;;;2.20;99.90;;;;;;2082405;28;20075;-75
2021/12/23 00:42:22;;;;;;;48.75;26.42;;;2.20;99.90;;;;;;2082750;28;20045;-74
2021/12/23 00:43:24;;;;;;;50.58;26.67;;;2.20;99.90;;;;;;2090943;28;20074;-75
2021/12/23 00:44:26;;;;;;;48.80;26.52;;;2.20;99.90;;;;;;2090683;28;20140;-74
2021/12/23 00:45:28;;;;;;;54.90;27.23;;;2.20;99.90;;;;;;2080675;28;20049;-74
2021/12/23 00:46:30;;;;;;;47.67;26.27;;;2.20;99.90;;;;;;2082864;28;20572;-74
2021/12/23 00:47:32;;;;;;;47.20;25.70;;;2.30;99.90;;;;;;2082849;28;20136;-75
2021/12/23 00:48:35;;;;;;;44.33;24.65;;;2.30;99.90;;;;;;2083426;28;20050;-74
2021/12/23 00:49:37;;;;;;;46.55;26.58;;;2.30;99.90;;;;;;2082114;28;20073;-74
2021/12/23 00:50:39;;;;;;;51.58;26.85;;;2.30;99.90;;;;;;2083569;28;20594;-74
2021/12/23 00:51:41;;;;;;;49.78;26.90;;;2.30;99.90;;;;;;2082098;28;20464;-76
2021/12/23 00:52:43;;;;;;;49.72;26.38;;;2.30;99.90;;;;;;2090842;28;20493;-74
2021/12/23 00:53:48;;;;;;;46.95;26.63;;;2.30;99.90;;;;;;2099365;28;20135;-74
2021/12/23 00:54:50;;;;;;;48.55;25.90;;;2.30;99.90;;;;;;2098550;28;20504;-74
2021/12/23 00:55:54;;;;;;;51.42;25.75;;;2.40;99.90;;;;;;2080868;28;20513;-73
2021/12/23 00:56:56;;;;;;;47.33;25.10;;;2.40;99.90;;;;;;2091604;28;20053;-74
2021/12/23 00:57:59;;;;;;;;;;;2.40;99.90;;;;;;2083484;28;20053;-75
2021/12/23 00:59:03;;;;;;;50.35;24.85;;;2.30;99.90;;;;;;2083561;28;19925;-75
2021/12/23 01:00:16;;;;;;;51.00;25.85;;;2.40;99.90;;;;;;2082068;28;20121;-74
2021/12/23 01:01:18;;;;;;;49.92;26.00;;;2.40;99.90;;;;;;2082140;28;20144;-75
2021/12/23 01:02:23;;;;;;;;;;;2.40;99.90;;;;;;2082663;28;20057;-74
2021/12/23 01:03:26;;;;;;;51.90;25.33;;;2.40;99.90;;;;;;2080590;28;19921;-74
2021/12/23 01:04:28;;;;;;;51.80;26.73;;;2.30;99.90;;;;;;2080950;28;20463;-74
2021/12/23 01:05:30;;;;;;;49.80;25.88;;;2.30;99.90;;;;;;2073392;28;20177;-75
2021/12/23 01:06:32;;;;;;;48.50;26.25;;;2.30;99.90;;;;;;2081868;28;20049;-75
2021/12/23 01:07:34;;;;;;;52.90;27.00;;;2.30;99.90;;;;;;2083985;28;20135;-75
2021/12/23 01:08:35;;;;;;;50.70;25.55;;;2.30;99.90;;;;;;2082029;28;20049;-75
2021/12/23 01:09:37;;;;;;;45.83;26.48;;;2.30;99.90;;;;;;2078847;28;20057;-75
2021/12/23 01:10:39;;;;;;;48.15;26.60;;;2.30;99.90;;;;;;2073788;28;20757;-74
2021/12/23 01:11:41;;;;;;;55.72;26.83;;;2.30;99.90;;;;;;2081753;28;20125;-74
2021/12/23 01:12:48;;;;;;;;;;;2.30;99.90;;;;;;2082246;28;20087;-75
2021/12/23 01:14:02;;;;;;;46.13;24.60;;;2.40;99.90;;;;;;2074080;28;19921;-75
2021/12/23 01:15:16;;;;;;;47.55;25.80;;;2.40;99.90;;;;;;2083086;28;20505;-74
2021/12/23 01:16:36;;;;;;;51.85;26.02;;;2.40;99.90;;;;;;2089965;28;20045;-75
2021/12/23 01:17:59;;;;;;;48.33;25.08;;;2.40;99.90;;;;;;2090070;28;20114;-74
2021/12/23 01:19:03;;;;;;;49.50;26.33;;;2.40;99.90;;;;;;2084817;28;20114;-74
2021/12/23 01:20:07;;;;;;;58.25;27.50;;;2.50;99.90;;;;;;2089732;28;20045;-75
2021/12/23 01:21:17;;;;;;;45.70;25.48;;;2.50;99.90;;;;;;2079676;28;20090;-74
2021/12/23 01:22:19;;;;;;;51.08;25.58;;;2.50;99.90;;;;;;2074478;28;20133;-75
2021/12/23 01:23:23;;;;;;;50.63;26.67;;;2.50;99.90;;;;;;2081226;28;20095;-74
2021/12/23 01:24:29;;;;;;;48.63;25.85;;;2.50;99.90;;;;;;2081909;28;20046;-75
2021/12/23 01:25:32;;;;;;;55.70;27.85;;;2.50;99.90;;;;;;2082532;28;20512;-76
2021/12/23 01:26:34;;;;;;;52.38;27.85;;;2.50;99.90;;;;;;2088637;28;20512;-76
2021/12/23 01:27:36;;;;;;;50.45;26.52;;;2.50;99.90;;;;;;2090621;28;20106;-75
2021/12/23 01:28:38;;;;;;;52.42;27.38;;;2.60;99.90;;;;;;2089928;28;20155;-75
2021/12/23 01:29:40;;;;;;;;;;;2.60;99.90;;;;;;2082647;28;20543;-75
2021/12/23 01:30:42;;;;;;;53.58;26.35;;;2.60;99.90;;;;;;2082064;28;19921;-75
2021/12/23 01:31:45;;;;;;;;;;;2.60;99.90;;;;;;2082571;28;20049;-75
2021/12/23 01:32:49;;;;;;;47.25;23.92;;;2.60;99.90;;;;;;2080424;28;20486;-74
2021/12/23 01:33:51;;;;;;;46.72;25.63;;;2.60;99.90;;;;;;2082230;28;20046;-75
2021/12/23 01:34:54;;;;;;;49.10;25.90;;;2.50;99.90;;;;;;2082076;28;20088;-75
2021/12/23 01:35:56;;;;;;;49.53;25.63;;;2.50;99.90;;;;;;2081956;28;20493;-76
2021/12/23 01:36:58;;;;;;;;;;;2.50;99.90;;;;;;2082205;28;20589;-75
2021/12/23 01:38:00;;;;;;;51.35;25.08;;;2.50;99.90;;;;;;2090282;28;19921;-75
2021/12/23 01:39:03;;;;;;;50.10;26.25;;;2.60;99.90;;;;;;2084634;28;20079;-76
2021/12/23 01:40:07;;;;;;;51.88;25.92;;;2.60;99.90;;;;;;2081502;28;20823;-75
2021/12/23 01:41:09;;;;;;;47.20;24.08;;;2.60;99.90;;;;;;2081712;28;20715;-75
2021/12/23 01:42:11;;;;;;;46.92;25.85;;;2.60;99.90;;;;;;2092557;28;20086;-75
2021/12/23 01:43:17;;;;;;;50.53;26.15;;;2.60;99.90;;;;;;2098045;28;20052;-76
2021/12/23 01:44:19;;;;;;;50.97;24.40;;;2.60;99.90;;;;;;2082568;28;20049;-77
2021/12/23 01:45:25;;;;;;;;;;;2.70;99.90;;;;;;2090593;28;20174;-76
2021/12/23 01:46:27;;;;;;;52.58;24.13;;;2.70;99.90;;;;;;2090147;28;20003;-75
2021/12/23 01:47:29;;;;;;;53.55;26.55;;;2.70;99.90;;;;;;2087984;28;20186;-75
2021/12/23 01:48:32;;;;;;;48.78;25.10;;;2.60;99.90;;;;;;2083896;28;20045;-75
2021/12/23 01:49:34;;;;;;;46.25;26.10;;;2.60;99.90;;;;;;2095686;28;20584;-77
2021/12/23 01:50:37;;;;;;;52.72;26.52;;;2.60;99.90;;;;;;2089563;28;20443;-76
2021/12/23 01:51:39;;;;;;;50.13;26.15;;;2.60;99.90;;;;;;2073986;28;20157;-75
2021/12/23 01:52:41;;;;;;;52.72;26.88;;;2.60;99.90;;;;;;2073734;28;20057;-76
2021/12/23 01:53:43;;;;;;;46.95;24.90;;;2.60;99.90;;;;;;2075688;28;20049;-76
2021/12/23 01:54:45;;;;;;;50.40;27.42;;;2.60;99.90;;;;;;2089453;28;20098;-76
2021/12/23 01:55:47;;;;;;;47.67;25.65;;;2.60;99.90;;;;;;2084751;28;20844;-75
2021/12/23 01:56:49;;;;;;;49.65;26.23;;;2.70;99.90;;;;;;2081822;28;20046;-75
2021/12/23 01:57:52;;;;;;;;;;;2.60;99.90;;;;;;2080564;28;20045;-76
2021/12/23 01:58:54;;;;;;;50.25;25.35;;;2.70;99.90;;;;;;2089913;28;20045;-75
2021/12/23 01:59:57;;;;;;;48.95;26.58;;;2.60;99.90;;;;;;2090434;28;20045;-75
2021/12/23 02:00:59;;;;;;;47.63;25.65;;;2.70;99.90;;;;;;2095831;28;20461;-78
2021/12/23 02:02:01;;;;;;;;;;;2.70;99.90;;;;;;2081820;28;20076;-75
2021/12/23 02:03:04;;;;;;;47.38;25.23;;;2.80;99.90;;;;;;2073831;28;20020;-76
2021/12/23 02:04:06;;;;;;;51.33;24.90;;;2.80;99.90;;;;;;2081779;28;20489;-76
2021/12/23 02:05:09;;;;;;;53.78;27.40;;;2.80;99.90;;;;;;2081784;28;20115;-76
2021/12/23 02:06:11;;;;;;;45.97;25.73;;;2.80;99.90;;;;;;2081376;28;20045;-77
2021/12/23 02:07:13;;;;;;;;;;;2.80;99.90;;;;;;2081922;28;20138;-74
2021/12/23 02:08:15;;;;;;;49.92;25.35;;;2.80;99.90;;;;;;2073623;28;19946;-74
2021/12/23 02:09:18;;;;;;;49.08;25.38;;;2.80;99.90;;;;;;2083522;28;20491;-75
2021/12/23 02:10:20;;;;;;;48.95;25.63;;;2.90;99.90;;;;;;2083056;28;20054;-76
2021/12/23 02:11:22;;;;;;;;;;;2.90;99.90;;;;;;2089989;28;20053;-76
2021/12/23 02:12:24;;;;;;;;;;;2.90;99.90;;;;;;2090445;28;19974;-76
2021/12/23 02:13:26;;;;;;;;;;;2.90;99.90;;;;;;2082031;28;19971;-78
2021/12/23 02:14:28;;;;;;;;;;;2.90;99.90;;;;;;2082017;28;19950;-74
2021/12/23 02:15:30;;;;;;;;;;;2.90;99.90;;;;;;2073868;28;20401;-76
2021/12/23 02:16:31;;;;;;;;;;;2.90;99.90;;;;;;2081920;28;20355;-75
2021/12/23 02:17:34;;;;;;;;;;;3.00;99.90;;;;;;2086631;28;19921;-76
2021/12/23 02:18:36;;;;;;;;;;;3.00;99.90;;;;;;2082226;28;19925;-75
2021/12/23 02:19:38;;;;;;;;;;;3.00;99.90;;;;;;2076565;28;20319;-76
2021/12/23 02:20:40;;;;;;;;;;;3.10;99.90;;;;;;2074422;28;19986;-76
2021/12/23 02:21:42;;;;;;;;;;;3.10;99.90;;;;;;2077430;28;20525;-76
2021/12/23 02:22:44;;;;;;;;;;;3.10;99.90;;;;;;2085349;28;19924;-76
2021/12/23 02:23:46;;;;;;;;;;;3.10;99.90;;;;;;2081899;28;20007;-77
2021/12/23 02:24:47;;;;;;;;;;;3.10;99.90;;;;;;2073959;28;19952;-76
2021/12/23 02:25:49;;;;;;;;;;;3.10;99.90;;;;;;2073895;28;20828;-75
2021/12/23 02:26:51;;;;;;;;;;;3.10;99.90;;;;;;2076237;28;20579;-76
2021/12/23 02:27:53;;;;;;;;;;;3.20;99.90;;;;;;2083288;28;20420;-76
2021/12/23 02:28:55;;;;;;;;;;;3.20;99.90;;;;;;2096354;28;20379;-76
2021/12/23 02:29:57;;;;;;;;;;;3.20;99.90;;;;;;2090166;28;20000;-76
2021/12/23 02:30:59;;;;;;;;;;;3.20;99.90;;;;;;2081996;28;20446;-77
2021/12/23 02:32:01;;;;;;;;;;;3.20;99.90;;;;;;2082116;28;19928;-78
2021/12/23 02:33:03;;;;;;;;;;;3.20;99.90;;;;;;2082110;28;19971;-77
2021/12/23 02:34:05;;;;;;;;;;;3.30;99.90;;;;;;2077742;28;19922;-78
2021/12/23 02:35:09;;;;;;;;;;;3.30;99.90;;;;;;2076428;28;19922;-75
2021/12/23 02:36:11;;;;;;;;;;;3.30;99.90;;;;;;2079381;28;20428;-76
2021/12/23 02:37:14;;;;;;;;;;;3.30;99.90;;;;;;2082074;28;19952;-76
2021/12/23 02:38:16;;;;;;;;;;;3.30;99.90;;;;;;2082094;28;20016;-76
2021/12/23 02:39:19;;;;;;;;;;;3.30;99.90;;;;;;2081830;28;19925;-76
2021/12/23 02:40:28;;;;;;;;;;;3.40;99.90;;;;;;2081808;28;20536;-77
2021/12/23 02:41:30;;;;;;;;;;;3.30;99.90;;;;;;2079601;28;20020;-77
2021/12/23 02:42:32;;;;;;;;;;;3.40;99.90;;;;;;2089912;28;20024;-77
2021/12/23 02:43:35;;;;;;;;;;;3.40;99.90;;;;;;2089892;28;19924;-76
2021/12/23 02:44:37;;;;;;;;;;;3.40;99.90;;;;;;2082011;28;19921;-76
2021/12/23 02:45:39;;;;;;;;;;;3.40;99.90;;;;;;2073963;28;19947;-76
2021/12/23 02:46:41;;;;;;;;;;;3.40;99.90;;;;;;2080985;28;19921;-76
2021/12/23 02:47:42;;;;;;;;;;;3.40;99.90;;;;;;2074823;28;19925;-75
2021/12/23 02:48:45;;;;;;;;;;;3.40;99.90;;;;;;2073531;28;20393;-77
2021/12/23 02:49:47;;;;;;;;;;;3.40;99.90;;;;;;2081586;28;20016;-77
2021/12/23 02:50:50;;;;;;;;;;;3.50;99.90;;;;;;2081678;28;20340;-77
2021/12/23 02:51:52;;;;;;;;;;;3.50;99.90;;;;;;2094248;28;19920;-77
2021/12/23 02:52:54;;;;;;;;;;;3.50;99.90;;;;;;2097685;28;19920;-77
2021/12/23 02:53:56;;;;;;;;;;;3.50;99.90;;;;;;2097860;28;19924;-76
2021/12/23 02:54:58;;;;;;;;;;;3.50;99.90;;;;;;2089745;28;19989;-76
2021/12/23 02:56:00;;;;;;;;;;;3.50;99.90;;;;;;2081711;28;19966;-77
2021/12/23 02:57:02;;;;;;;;;;;3.50;99.90;;;;;;2086137;28;19921;-76
2021/12/23 02:58:05;;;;;;;;;;;3.50;99.90;;;;;;2075919;28;20381;-76
2021/12/23 02:59:06;;;;;;;;;;;3.50;99.90;;;;;;2089839;28;19981;-77
2021/12/23 03:00:09;;;;;;;;;;;3.50;99.90;;;;;;2089580;28;19973;-76
2021/12/23 03:01:12;;;;;;;;;;;3.60;99.90;;;;;;2085792;28;19973;-75
2021/12/23 03:02:14;;;;;;;;;;;3.60;99.90;;;;;;2097974;28;19920;-75
2021/12/23 03:03:16;;;;;;;;;;;3.60;99.90;;;;;;2089484;28;19928;-77
2021/12/23 03:04:17;;;;;;;;;;;3.60;99.90;;;;;;2081656;28;19921;-76
2021/12/23 03:05:19;;;;;;;;;;;3.60;99.90;;;;;;2073803;28;19967;-76
2021/12/23 03:06:22;;;;;;;;;;;3.60;99.90;;;;;;2075801;28;19925;-77
2021/12/23 03:07:24;;;;;;;;;;;3.60;99.90;;;;;;2073762;28;19921;-76
2021/12/23 03:08:29;;;;;;;;;;;3.60;99.90;;;;;;2073435;28;19971;-76
2021/12/23 03:09:31;;;;;;;;;;;3.60;99.90;;;;;;2074453;28;20007;-77
2021/12/23 03:10:33;;;;;;;;;;;3.60;99.90;;;;;;2081553;28;19925;-75
2021/12/23 03:11:35;;;;;;;;;;;3.80;99.90;;;;;;2073905;28;19921;-77
2021/12/23 03:12:37;;;;;;;;;;;3.80;99.90;;;;;;2073730;28;19975;-77
2021/12/23 03:13:38;;;;;;;;;;;3.70;99.90;;;;;;2073925;28;19955;-77
2021/12/23 03:14:40;;;;;;;;;;;3.70;99.90;;;;;;2076753;28;19925;-76
2021/12/23 03:15:42;;;;;;;;;;;3.70;99.90;;;;;;2081960;28;19921;-76
2021/12/23 03:16:46;;;;;;;;;;;3.70;99.90;;;;;;2078408;28;20607;-77
2021/12/23 03:17:47;;;;;;;;;;;3.70;99.90;;;;;;2090299;28;20472;-77
2021/12/23 03:18:49;;;;;;;;;;;3.80;99.90;;;;;;2099048;28;19924;-77
2021/12/23 03:19:51;;;;;;;;;;;3.80;99.90;;;;;;2098602;28;19977;-76
2021/12/23 03:20:53;;;;;;;;;;;3.80;99.90;;;;;;2082527;28;19974;-77
2021/12/23 03:21:55;;;;;;;;;;;3.70;99.90;;;;;;2088775;28;19921;-77
2021/12/23 03:22:56;;;;;;;;;;;3.70;99.90;;;;;;2089671;28;19924;-77
2021/12/23 03:23:58;;;;;;;;;;;3.70;99.90;;;;;;2081366;28;19928;-76
2021/12/23 03:25:00;;;;;;;;;;;3.70;99.90;;;;;;2073300;28;19929;-78
2021/12/23 03:26:03;;;;;;;;;;;3.70;99.90;;;;;;2073483;28;20417;-76
2021/12/23 03:27:04;;;;;;;;;;;3.70;99.90;;;;;;2081477;28;19925;-77
2021/12/23 03:28:06;;;;;;;;;;;3.80;99.90;;;;;;2088567;28;19955;-80
2021/12/23 03:29:11;;;;;;;;;;;3.70;99.90;;;;;;2097238;28;20443;-77
2021/12/23 03:30:12;;;;;;;;;;;3.70;99.90;;;;;;2086072;28;20063;-76
2021/12/23 03:31:14;;;;;;;;;;;3.70;99.90;;;;;;2081714;28;20359;-77
2021/12/23 03:32:16;;;;;;;;;;;3.70;99.90;;;;;;2081137;28;19921;-77
2021/12/23 03:33:18;;;;;;;;;;;3.70;99.90;;;;;;2073244;28;19926;-76
2021/12/23 03:34:20;;;;;;;;;;;3.70;99.90;;;;;;2073566;28;20040;-78
2021/12/23 03:35:22;;;;;;;;;;;3.70;99.90;;;;;;2072947;28;20016;-76
2021/12/23 03:36:23;;;;;;;;;;;3.70;99.90;;;;;;2081164;28;19924;-78
2021/12/23 03:37:25;;;;;;;;;;;3.60;99.90;;;;;;2096210;28;19920;-77
2021/12/23 03:38:27;;;;;;;;;;;3.60;99.90;;;;;;2089672;28;19992;-77
2021/12/23 03:39:29;;;;;;;;;;;3.60;99.90;;;;;;2081428;28;19921;-78
2021/12/23 03:40:30;;;;;;;;;;;3.60;99.90;;;;;;2080974;28;19925;-77
2021/12/23 03:41:32;;;;;;;;;;;3.60;99.90;;;;;;2081302;28;20338;-77
2021/12/23 03:42:34;;;;;;;;;;;3.60;99.90;;;;;;2089680;28;19920;-77
2021/12/23 03:43:36;;;;;;;;;;;3.60;99.90;;;;;;2089832;28;19978;-78
2021/12/23 03:44:38;;;;;;;;;;;3.60;99.90;;;;;;2085146;28;19973;-76
2021/12/23 03:45:40;;;;;;;;;;;3.60;99.90;;;;;;2089539;28;19968;-77
2021/12/23 03:46:42;;;;;;;;;;;3.60;99.90;;;;;;2081548;28;19929;-78
2021/12/23 03:47:48;;;;;;;;;;;3.60;99.90;;;;;;2081667;28;19921;-76
2021/12/23 03:48:50;;;;;;;;;;;3.60;99.90;;;;;;2082073;28;20153;-78
2021/12/23 03:49:52;;;;;;;;;;;3.60;99.90;;;;;;2081441;28;19921;-76
2021/12/23 03:50:54;;;;;;;;;;;3.60;99.90;;;;;;2081662;28;19955;-77
2021/12/23 03:51:55;;;;;;;;;;;3.60;99.90;;;;;;2079849;28;20004;-78
2021/12/23 03:52:57;;;;;;;;;;;3.60;99.90;;;;;;2083113;28;19921;-77
2021/12/23 03:53:59;;;;;;;;;;;3.60;99.90;;;;;;2078996;28;19954;-76
2021/12/23 03:55:02;;;;;;;;;;;3.60;99.90;;;;;;2073581;28;20353;-77
2021/12/23 03:56:04;;;;;;;;;;;3.60;99.90;;;;;;2073309;28;19944;-77
2021/12/23 03:57:06;;;;;;;;;;;3.60;99.90;;;;;;2081624;28;20403;-77
2021/12/23 03:58:08;;;;;;;;;;;3.60;99.90;;;;;;2081284;28;20014;-76
2021/12/23 03:59:09;;;;;;;;;;;3.70;99.90;;;;;;2073120;28;20344;-77
2021/12/23 04:00:12;;;;;;;;;;;3.70;99.90;;;;;;2074611;28;19921;-78
2021/12/23 04:01:14;;;;;;;;;;;3.70;99.90;;;;;;2079271;28;19967;-77
2021/12/23 04:02:16;;;;;;;;;;;3.70;99.90;;;;;;2083537;28;19967;-76
2021/12/23 04:03:18;;;;;;;;;;;3.60;99.90;;;;;;2089696;28;19921;-77
2021/12/23 04:04:20;;;;;;;;;;;3.60;99.90;;;;;;2081542;28;19951;-78
2021/12/23 04:05:22;;;;;;;;;;;3.60;99.90;;;;;;2081681;28;19954;-76
2021/12/23 04:06:26;;;;;;;;;;;3.60;99.90;;;;;;2081206;28;19947;-76
2021/12/23 04:07:28;;;;;;;;;;;3.60;99.90;;;;;;2081937;28;20003;-78
2021/12/23 04:08:30;;;;;;;;;;;3.60;99.90;;;;;;2081351;28;19955;-76
2021/12/23 04:09:31;;;;;;;;;;;3.50;99.90;;;;;;2077058;28;19921;-79
2021/12/23 04:10:33;;;;;;;;;;;3.50;99.90;;;;;;2073335;28;19921;-79
2021/12/23 04:11:35;;;;;;;;;;;3.50;99.90;;;;;;2073214;28;19967;-77
2021/12/23 04:12:37;;;;;;;;;;;3.50;99.90;;;;;;2081247;28;19921;-76
2021/12/23 04:13:39;;;;;;;;;;;3.40;99.90;;;;;;2081236;28;19925;-76
2021/12/23 04:14:41;;;;;;;;;;;3.40;99.90;;;;;;2094995;28;20461;-77
2021/12/23 04:15:43;;;;;;;;;;;3.40;99.90;;;;;;2083227;28;20404;-80
2021/12/23 04:16:44;;;;;;;;;;;3.40;99.90;;;;;;2073259;28;20020;-77
2021/12/23 04:17:46;;;;;;;;;;;3.40;99.90;;;;;;2081755;28;19921;-77
2021/12/23 04:18:50;;;;;;;;;;;3.40;99.90;;;;;;2084857;28;19921;-77
2021/12/23 04:19:55;;;;;;;;;;;3.40;99.90;;;;;;2081972;28;20004;-76
2021/12/23 04:20:57;;;;;;;;;;;3.50;99.90;;;;;;2082430;28;19970;-77
2021/12/23 04:21:59;;;;;;;;;;;3.50;99.90;;;;;;2081331;28;19996;-77
2021/12/23 04:23:03;;;;;;;;;;;3.50;99.90;;;;;;2073369;28;19925;-76
2021/12/23 04:24:05;;;;;;;;;;;3.50;99.90;;;;;;2073511;28;19921;-78
2021/12/23 04:25:07;;;;;;;;;;;3.40;99.90;;;;;;2073444;28;20012;-76
2021/12/23 04:26:09;;;;;;;;;;;3.40;99.90;;;;;;2081957;28;19925;-77
2021/12/23 04:27:11;;;;;;;;;;;3.40;99.90;;;;;;2095269;28;20495;-76
2021/12/23 04:28:13;;;;;;;;;;;3.40;99.90;;;;;;2089420;28;19954;-76
2021/12/23 04:29:15;;;;;;;;;;;3.40;99.90;;;;;;2089375;28;19932;-77
2021/12/23 04:30:17;;;;;;;;;;;3.40;99.90;;;;;;2089463;28;19948;-77
2021/12/23 04:31:20;;;;;;;;;;;3.40;99.90;;;;;;2081422;28;19921;-76
2021/12/23 04:32:22;;;;;;;;;;;3.40;99.90;;;;;;2081551;28;19925;-77
2021/12/23 04:33:24;;;;;;;;;;;3.40;99.90;;;;;;2081472;28;19921;-76
2021/12/23 04:34:26;;;;;;;;;;;3.40;99.90;;;;;;2087589;28;19924;-76
2021/12/23 04:35:28;;;;;;;;;;;3.40;99.90;;;;;;2081987;28;19921;-76
2021/12/23 04:36:30;;;;;;;;;;;3.40;99.90;;;;;;2088467;28;20388;-77
2021/12/23 04:37:32;;;;;;;;;;;3.40;99.90;;;;;;2081762;28;19921;-74
2021/12/23 04:38:34;;;;;;;;;;;3.40;99.90;;;;;;2080678;28;20011;-74
2021/12/23 04:39:35;;;;;;;;;;;3.50;99.90;;;;;;2077531;28;20400;-80
2021/12/23 04:40:37;;;;;;;;;;;3.50;99.90;;;;;;2082805;28;20412;-77
2021/12/23 04:41:39;;;;;;;;;;;3.50;99.90;;;;;;2089110;28;19925;-76
2021/12/23 04:42:41;;;;;;;;;;;3.50;99.90;;;;;;2082786;28;19924;-75
2021/12/23 04:43:43;;;;;;;;;;;3.50;99.90;;;;;;2082154;28;19921;-76
2021/12/23 04:44:45;;;;;;;;;;;3.50;99.90;;;;;;2090711;28;20007;-77
2021/12/23 04:45:46;;;;;;;;;;;3.50;99.90;;;;;;2091062;28;20007;-76
2021/12/23 04:46:48;;;;;;;;;;;3.50;99.90;;;;;;2082857;28;20083;-76
2021/12/23 04:47:50;;;;;;;;;;;3.50;99.90;;;;;;2082744;28;19974;-76
2021/12/23 04:48:52;;;;;;;;;;;3.50;99.90;;;;;;2082904;28;20020;-78
2021/12/23 04:49:53;;;;;;;;;;;3.50;99.90;;;;;;2082009;28;19971;-75
2021/12/23 04:50:55;;;;;;;;;;;3.50;99.90;;;;;;2090067;28;19970;-75
2021/12/23 04:51:57;;;;;;;;;;;3.50;99.90;;;;;;2082585;28;19947;-76
2021/12/23 04:52:59;;;;;;;;;;;3.50;99.90;;;;;;2082856;28;19921;-75
2021/12/23 04:54:01;;;;;;;;;;;3.50;99.90;;;;;;2074742;28;20060;-76
2021/12/23 04:55:02;;;;;;;;;;;3.50;99.90;;;;;;2074433;28;20470;-76
2021/12/23 04:56:04;;;;;;;;;;;3.50;99.90;;;;;;2074620;28;19926;-76
2021/12/23 04:57:06;;;;;;;;;;;3.50;99.90;;;;;;2074507;28;20011;-76
2021/12/23 04:58:08;;;;;;;;;;;3.50;99.90;;;;;;2074206;28;19925;-76
2021/12/23 04:59:17;;;;;;;;;;;3.50;99.90;;;;;;2083988;28;20408;-77
2021/12/23 05:00:20;;;;;;;;;;;3.50;99.90;;;;;;2090849;28;20015;-77
2021/12/23 05:01:28;;;;;;;;;;;3.50;99.90;;;;;;2082602;28;19970;-76
2021/12/23 05:02:30;;;;;;;;;;;3.50;99.90;;;;;;2081713;28;19928;-77
2021/12/23 05:03:32;;;;;;;;;;;3.60;99.90;;;;;;2082389;28;19921;-75
2021/12/23 05:04:34;;;;;;;;;;;3.60;99.90;;;;;;2078705;28;20420;-77
2021/12/23 05:05:36;;;;;;;;;;;3.50;99.90;;;;;;2082709;28;19921;-76
2021/12/23 05:06:38;;;;;;;;;;;3.50;99.90;;;;;;2074712;28;19922;-76
2021/12/23 05:07:40;;;;;;;;;;;3.50;99.90;;;;;;2074552;28;19921;-76
2021/12/23 05:08:42;;;;;;;;;;;3.50;99.90;;;;;;2074342;28;20486;-78
2021/12/23 05:09:44;;;;;;;;;;;3.60;99.90;;;;;;2074950;28;19974;-75
2021/12/23 05:10:46;;;;;;;;;;;3.50;99.90;;;;;;2075468;28;19972;-76
2021/12/23 05:11:48;;;;;;;;;;;3.60;99.90;;;;;;2076731;28;19921;-75
2021/12/23 05:12:49;;;;;;;;;;;3.50;99.90;;;;;;2090707;28;19935;-77
2021/12/23 05:13:51;;;;;;;;;;;3.60;99.90;;;;;;2090760;28;20011;-78
2021/12/23 05:14:53;;;;;;;;;;;3.50;99.90;;;;;;2082855;28;20396;-78
2021/12/23 05:15:54;;;;;;;;;;;3.60;99.90;;;;;;2082857;28;19951;-76
2021/12/23 05:16:56;;;;;;;;;;;3.60;99.90;;;;;;2082785;28;20404;-76
2021/12/23 05:17:58;;;;;;;;;;;3.60;99.90;;;;;;2088700;28;20473;-76
2021/12/23 05:19:00;;;;;;;;;;;3.50;99.90;;;;;;2090633;28;19925;-76
2021/12/23 05:20:03;;;;;;;;;;;3.60;99.90;;;;;;2090621;28;19927;-77
2021/12/23 05:21:05;;;;;;;;;;;3.60;99.90;;;;;;2082376;28;19921;-78
2021/12/23 05:22:07;;;;;;;;;;;3.60;99.90;;;;;;2074430;28;20019;-77
2021/12/23 05:23:09;;;;;;;;;;;3.60;99.90;;;;;;2077288;28;20032;-80
2021/12/23 05:24:11;;;;;;;;;;;3.60;99.90;;;;;;2078785;28;20665;-76
2021/12/23 05:25:13;;;;;;;;;;;3.60;99.90;;;;;;2082725;28;19921;-76
2021/12/23 05:26:14;;;;;;;;;;;3.60;99.90;;;;;;2082461;28;20026;-77
2021/12/23 05:27:16;;;;;;;;;;;3.60;99.90;;;;;;2082401;28;19921;-76
2021/12/23 05:28:18;;;;;;;;;;;3.60;99.90;;;;;;2082274;28;20435;-76
2021/12/23 05:29:20;;;;;;;;;;;3.60;99.90;;;;;;2090751;28;19920;-75
2021/12/23 05:30:23;;;;;;;;;;;3.60;99.90;;;;;;2089282;28;20084;-77
2021/12/23 05:31:25;;;;;;;;;;;3.60;99.90;;;;;;2090091;28;20465;-77
2021/12/23 05:32:26;;;;;;;;;;;3.70;99.90;;;;;;2097246;28;19920;-76
2021/12/23 05:33:28;;;;;;;;;;;3.60;99.90;;;;;;2098662;28;19920;-77
2021/12/23 05:34:30;;;;;;;;;;;3.70;99.90;;;;;;2082696;28;19921;-79
2021/12/23 05:35:32;;;;;;;;;;;3.70;99.90;;;;;;2089271;28;19974;-77
2021/12/23 05:36:34;;;;;;;;;;;3.70;99.90;;;;;;2089262;28;19970;-76
2021/12/23 05:37:35;;;;;;;;;;;3.70;99.90;;;;;;2082854;28;20016;-77
2021/12/23 05:38:37;;;;;;;;;;;3.70;99.90;;;;;;2090441;28;20553;-75
2021/12/23 05:39:39;;;;;;;;;;;3.70;99.90;;;;;;2098946;28;19920;-77
2021/12/23 05:40:44;;;;;;;;;;;3.70;99.90;;;;;;2097986;28;19921;-77
2021/12/23 05:41:46;;;;;;;;;;;3.70;99.90;;;;;;2081148;28;19982;-76
2021/12/23 05:42:48;;;;;;;;;;;3.70;99.90;;;;;;2082214;28;20004;-77
2021/12/23 05:43:49;;;;;;;;;;;3.70;99.90;;;;;;2089984;28;20496;-77
2021/12/23 05:44:51;;;;;;;;;;;3.70;99.90;;;;;;2098921;28;20132;-78
2021/12/23 05:45:54;;;;;;;;;;;3.70;99.90;;;;;;2098483;28;19920;-76
2021/12/23 05:46:56;;;;;;;;;;;3.70;99.90;;;;;;2090379;28;19924;-76
2021/12/23 05:47:58;;;;;;;;;;;3.70;99.90;;;;;;2089151;28;19970;-76
2021/12/23 05:49:00;;;;;;;;;;;3.80;99.90;;;;;;2082037;28;20386;-80
2021/12/23 05:50:02;;;;;;;;;;;3.80;99.90;;;;;;2074865;28;19925;-76
2021/12/23 05:51:04;;;;;;;;;;;3.80;99.90;;;;;;2081408;28;19955;-75
2021/12/23 05:52:06;;;;;;;;;;;3.80;99.90;;;;;;2074284;28;19921;-76
2021/12/23 05:53:08;;;;;;;;;;;3.80;99.90;;;;;;2074229;28;19952;-77
2021/12/23 05:54:09;;;;;;;;;;;3.80;99.90;;;;;;2082210;28;20430;-77
2021/12/23 05:55:12;;;;;;;;;;;3.80;99.90;;;;;;2082343;28;20475;-75
2021/12/23 05:56:13;;;;;;;;;;;3.80;99.90;;;;;;2090843;28;20415;-77
2021/12/23 05:57:15;;;;;;;;;;;3.80;99.90;;;;;;2095080;28;19924;-77